KMDH Weather | Aviation | SIU

Home
Southern Illinois University

CONTACT

SIU.EDU

Aviation - Weather

College of Applied Sciences and Arts

KMDH Weather

NOTICE: Although all weather products are taken from the National Weather Service, this data should be used only as a supplement to a formal weather briefing.

Last Updated: Friday, February 28th, 2020, 7:18 pm
Information on this page is updated every 5 minutes.


METARS

KMDH 290052Z 31006KT 10SM SCT075 06/M02 A3013 RMK AO2 SLP206 T00561022

KMDH 282352Z 33006KT 10SM BKN060 07/00 A3011 RMK AO2 SLP200 60000 T00670000

KMDH 282252Z 32005KT 10SM BKN060 07/00 A3009 RMK AO2 SLP192 T00720000

KMWA 290045Z 30005KT 10SM SCT065 05/M01 A3013

KMWA 282346Z 30005KT 10SM BKN065 06/00 A3011

KMWA 282246Z 31010KT 10SM SCT043 BKN049 BKN060 07/00 A3010

KCGI 290053Z AUTO 25008KT 10SM BKN055 OVC070 06/03 A3015 RMK AO2 SLP210

KCGI 282353Z AUTO 00000KT 10SM BKN040 BKN100 07/03 A3013 RMK AO2 SLP203 60000

KCGI 282253Z 24009KT 10SM BKN090 07/03 A3010 RMK AO2 SLP193 T00670028

KSAR 290035Z AUTO 32005KT 10SM CLR 05/M02 A3014 RMK AO2 T00501020

KSAR 290015Z AUTO 31005KT 10SM SCT070 06/M02 A3013 RMK AO2 T00561020

KSAR 282355Z AUTO 31006KT 10SM SCT070 BKN075 06/M02 A3012 RMK AO2 T00621017

KSAR 282335Z AUTO 30006G15KT 10SM OVC070 07/M02 A3012 RMK AO2 T00671016

KSAR 282315Z AUTO 31006KT 10SM BKN070 07/M01 A3011 RMK AO2 T00701014

KSAR 282255Z AUTO 32007KT 10SM SCT070 07/M01 A3010 RMK AO2 T00721014

KSAR 282235Z AUTO 31009KT 10SM SCT070 07/M01 A3009 RMK AO2 T00731007

KFAM 290056Z AUTO 31006KT 10SM FEW065 06/M03 A3014 RMK AO2 SLP225 T00561028

KFAM 282356Z AUTO 31005KT 10SM SCT080 06/M02 A3013 RMK AO2 SLP219 60000

KFAM 282256Z AUTO 32011KT 10SM BKN060 OVC075 07/M01 A3010 RMK AO2 RAB16E39

KMVN 290056Z AUTO 36006KT 10SM SCT039 BKN047 BKN065 04/M01 A3014 RMK AO2 SLP217

KMVN 282356Z AUTO VRB04KT 10SM FEW055 BKN075 05/M01 A3011 RMK AO2 SLP204 60000

KMVN 282256Z AUTO VRB05KT 10SM FEW042 BKN049 OVC070 06/M01 A3009 RMK AO2

KHSB 290055Z AUTO 29003KT 10SM SCT075 02/00 A3013 RMK AO2 T00180004

KHSB 290035Z AUTO 30003KT 10SM CLR 04/01 A3012 RMK AO2 T00360014

KCIR 290055Z AUTO 23003KT 10SM SCT037 BKN050 OVC075 05/03 A3015 RMK AO2

KCIR 290035Z AUTO 26003KT 10SM SCT039 BKN049 OVC075 05/03 A3015 RMK AO2

KPAH 290053Z 23004KT 10SM BKN080 03/02 A3014 RMK AO2 RAE17 SLP207 P0000

KPAH 290023Z 22004KT 10SM SCT027 SCT035 BKN075 04/02 A3013 RMK AO2 RAE17 P0000

KFAM 290056Z AUTO 31006KT 10SM FEW065 06/M03 A3014 RMK AO2 SLP225 T00561028

KBLV 290056Z AUTO 36009KT 10SM FEW060 03/M02 A3014 RMK AO2 SLP214 T00341017 $

KENL 290055Z AUTO 34010KT 10SM SCT040 OVC050 03/00 A3014 RMK AO2 T00300000

KENL 290035Z AUTO 36008KT 10SM SCT038 SCT044 OVC060 03/00 A3013 RMK AO2

KMTO 290053Z AUTO 32014KT 10SM SCT018 SCT023 OVC034 M01/M04 A3012 RMK AO2 SLP208

KMTO 290032Z AUTO 32013KT 9SM SCT018 BKN023 OVC032 M01/M03 A3012 RMK AO2

KFWC 290055Z AUTO 34005KT 10SM SCT040 BKN048 OVC055 03/M01 A3013 RMK AO1

KFWC 290035Z AUTO 34005KT 10SM SCT047 BKN060 OVC070 03/M01 A3012 RMK AO1

KCUL 290055Z AUTO 36009KT 10SM SCT055 BKN075 03/00 A3012 RMK AO2

KCUL 290035Z AUTO 36008KT 10SM BKN075 03/00 A3010 RMK AO2

KEVV 290054Z 35008KT 10SM BKN080 03/M01 A3012 RMK AO2 RAE03 SLP204 P0000

KCEY 290055Z AUTO 26005KT 10SM FEW043 BKN060 OVC120 03/03 A3014 RMK AO1

KCEY 290035Z AUTO 24007KT 10SM SCT060 BKN080 OVC120 04/04 A3013 RMK AO1

KHOP 290110Z AUTO 27007KT 10SM -DZ FEW028 SCT042 06/00 A3013 RMK AO2 DZB10

KHOP 290056Z AUTO 25010KT 10SM SCT042 06/00 A3012 RMK AO2 SLP205 T00630000

KJBR 290053Z AUTO 00000KT 10SM OVC095 10/00 A3017 RMK AO2 SLP216 T01000000

KALN 290050Z 34010KT 10SM SCT049 BKN065 03/M01 A3016

KALN 290050Z 34010KT 10SM SCT049 BKN065 03/M01 A3016

KCOU 290054Z 34008KT 10SM CLR 04/M02 A3016 RMK AO2 SLP220 T00441017

KSPI 290036Z 33010G18KT 10SM OVC031 M01/M06 A3017 RMK AO2 T10061056

KSPI 290023Z 32014KT 10SM BKN029 OVC037 M01/M06 A3016 RMK AO2 T10061056

KAJG 290055Z AUTO 35009KT 10SM BKN044 BKN050 OVC065 02/M02 A3012 RMK AO2

KAJG 290035Z AUTO 34008KT 10SM SCT042 BKN050 OVC070 02/M02 A3011 RMK AO2

KM30 290055Z AUTO 25004KT 10SM BKN060 OVC070 05/03 A3015 RMK AO2 T00450027

KM30 290035Z AUTO 24005KT 10SM SCT060 BKN070 05/03 A3014 RMK AO2 T00450025

KDEC 290054Z 32011KT 10SM OVC040 M02/M06 A3015 RMK AO2 SNB23E35 SLP216 P0000

KDEC 290022Z 33012KT 9SM SCT026 OVC035 M02/M06 A3014 RMK AO2 T10171061

KIJX 290035Z AUTO 33010KT 10SM OVC037 00/M03 A3018 RMK AO2 T10021035


TAFS

KEVV 282320Z 2900/2924 30009G15KT P6SM VCSH BKN045

        FM290300 33006KT P6SM SCT050

        FM291600 26005KT P6SM SKC


Winds Aloft



Pilot Reports

No pilot reports found for area.



Area Forecast



Significant Weather

WSUS32 KKCI 282355 SIGC CONVECTIVE SIGMET...NONE OUTLOOK VALID 290155-290555 TS ARE NOT EXPD.
WSUS32 KKCI 290055 SIGC CONVECTIVE SIGMET...NONE OUTLOOK VALID 290255-290655 TS ARE NOT EXPD.